Time;durP1;ratioP1;P1;durP2;ratioP2;P2;SDS_P1;SDS_P2;PMS_P1;PMS_P2;Temp;Humidity;BMP_temperature;BMP_pressure;BME280_temperature;BME280_humidity;BME280_pressure;Samples;Min_cycle;Max_cycle;Signal;HPM_P1;HPM_P2
2022/05/13 00:01:07;;;;;;;8.73;4.47;;;;;;;16.15;54.54;99568.31;5064964;28;20092;-96
2022/05/13 00:03:33;;;;;;;6.45;4.32;;;;;;;16.13;54.53;99564.28;5065179;28;20027;-94
2022/05/13 00:05:59;;;;;;;6.53;3.83;;;;;;;16.11;55.08;99569.22;5064655;28;20040;-94
2022/05/13 00:08:24;;;;;;;5.82;3.72;;;;;;;15.97;55.33;99552.91;5081627;28;20089;-94
2022/05/13 00:10:50;;;;;;;6.57;3.50;;;;;;;15.91;55.91;99557.59;5065222;28;20136;-94
2022/05/13 00:13:15;;;;;;;7.45;3.90;;;;;;;15.85;56.16;99560.72;5081751;28;20026;-95
2022/05/13 00:15:42;;;;;;;13.90;4.28;;;;;;;15.92;55.87;99578.25;5081019;28;20480;-95
2022/05/13 00:18:08;;;;;;;7.28;4.43;;;;;;;15.68;56.00;99544.97;5065596;28;20403;-95
2022/05/13 00:20:37;;;;;;;7.50;4.22;;;;;;;15.71;56.14;99544.38;5065017;28;20092;-95
2022/05/13 00:23:02;;;;;;;6.78;4.10;;;;;;;15.90;56.09;99580.44;5065375;28;20036;-94
2022/05/13 00:25:30;;;;;;;7.63;4.22;;;;;;;15.78;56.06;99549.47;5064626;28;20104;-95
2022/05/13 00:27:56;;;;;;;9.48;3.90;;;;;;;15.58;56.62;99545.94;5064662;28;20032;-95
2022/05/13 00:30:22;;;;;;;6.72;3.75;;;;;;;15.66;56.93;99556.13;5064496;28;20024;-96
2022/05/13 00:32:49;;;;;;;7.68;3.85;;;;;;;15.55;57.17;99554.69;5064444;28;20084;-95
2022/05/13 00:35:15;;;;;;;7.43;4.13;;;;;;;15.55;57.43;99563.63;5065059;28;20408;-95
2022/05/13 00:37:40;;;;;;;6.43;4.05;;;;;;;15.53;56.85;99549.56;5064788;28;20509;-95
2022/05/13 00:40:06;;;;;;;6.82;4.68;;;;;;;15.49;57.58;99556.69;5064814;28;20066;-94
2022/05/13 00:42:32;;;;;;;7.05;3.85;;;;;;;15.43;57.67;99544.28;5064868;28;20453;-95
2022/05/13 00:44:58;;;;;;;6.47;3.80;;;;;;;15.40;57.83;99563.91;5060587;28;20048;-95
2022/05/13 00:47:24;;;;;;;6.90;4.05;;;;;;;15.28;57.68;99529.06;5044930;28;20020;-95
2022/05/13 00:49:50;;;;;;;7.53;4.30;;;;;;;15.45;57.85;99554.84;5045076;28;20031;-94
2022/05/13 00:52:16;;;;;;;8.02;4.00;;;;;;;15.40;57.73;99566.59;5044555;28;20027;-94
2022/05/13 00:54:41;;;;;;;6.85;4.13;;;;;;;15.08;58.37;99541.03;5043999;28;20452;-95
2022/05/13 00:57:07;;;;;;;7.22;3.70;;;;;;;15.19;58.45;99555.25;5044144;28;20032;-95
2022/05/13 00:59:34;;;;;;;5.82;4.03;;;;;;;15.29;58.15;99574.09;5043948;28;20032;-94
2022/05/13 01:02:00;;;;;;;5.95;4.35;;;;;;;15.11;58.31;99539.66;5043810;28;20024;-94
2022/05/13 01:04:25;;;;;;;8.60;4.03;;;;;;;15.21;58.13;99550.34;5043711;28;20560;-94
2022/05/13 01:06:53;;;;;;;7.63;4.28;;;;;;;15.32;57.96;99553.72;5043426;28;20493;-94
2022/05/13 01:09:19;;;;;;;6.35;4.32;;;;;;;15.25;58.18;99550.56;5043685;28;20024;-95
2022/05/13 01:11:44;;;;;;;7.25;4.63;;;;;;;15.13;58.49;99549.09;5043612;28;20070;-95
2022/05/13 01:14:22;;;;;;;6.70;3.80;;;;;;;15.04;58.78;99550.84;5043385;28;20058;-94
2022/05/13 01:19:32;;;;;;;6.25;4.05;;;;;;;14.93;58.95;99552.09;5066062;28;20035;-94
2022/05/13 01:22:10;;;;;;;7.75;4.40;;;;;;;14.85;58.89;99540.00;5061005;28;20024;-95
2022/05/13 01:24:36;;;;;;;6.18;4.15;;;;;;;14.73;59.49;99539.63;5058487;28;20028;-94
2022/05/13 01:27:02;;;;;;;8.63;4.78;;;;;;;14.75;59.78;99557.25;5059723;28;20027;-93
2022/05/13 01:29:27;;;;;;;7.15;4.70;;;;;;;14.65;59.74;99541.09;5060098;28;20443;-95
2022/05/13 01:31:53;;;;;;;8.85;4.78;;;;;;;14.73;59.90;99550.47;5059883;28;20099;-95
2022/05/13 01:34:18;;;;;;;8.40;4.53;;;;;;;14.72;59.97;99552.38;5043701;28;20048;-95
2022/05/13 01:36:44;;;;;;;10.50;4.97;;;;;;;14.62;60.37;99557.13;5059876;28;20032;-95
2022/05/13 01:39:10;;;;;;;12.63;4.65;;;;;;;14.57;60.19;99544.47;5060188;28;20038;-95
2022/05/13 01:41:35;;;;;;;12.63;4.97;;;;;;;14.42;60.31;99526.47;5043122;28;20464;-95
2022/05/13 01:44:01;;;;;;;9.38;4.75;;;;;;;14.61;60.45;99564.47;5042829;28;20047;-95
2022/05/13 01:46:27;;;;;;;7.10;4.85;;;;;;;14.48;60.56;99548.88;5043281;28;20465;-94
2022/05/13 01:48:53;;;;;;;8.57;5.25;;;;;;;14.44;60.68;99553.25;5076374;28;20473;-95
2022/05/13 01:51:18;;;;;;;7.07;4.82;;;;;;;14.31;60.72;99542.03;5060178;28;20078;-95
2022/05/13 01:53:44;;;;;;;8.02;5.10;;;;;;;14.20;61.10;99537.81;5059173;28;20042;-94
2022/05/13 01:56:10;;;;;;;9.48;4.72;;;;;;;14.03;61.57;99532.03;5060097;28;20496;-95
2022/05/13 01:58:36;;;;;;;9.95;4.72;;;;;;;14.05;61.69;99536.09;5076276;28;20063;-95
2022/05/13 02:01:03;;;;;;;11.35;5.05;;;;;;;14.09;61.60;99541.72;5059815;28;20028;-94
2022/05/13 02:03:44;;;;;;;10.80;5.40;;;;;;;14.03;61.97;99535.59;5059293;28;20035;-95
2022/05/13 02:06:21;;;;;;;9.57;4.88;;;;;;;13.97;62.15;99538.63;5063581;28;20016;-94
2022/05/13 02:08:47;;;;;;;6.85;4.78;;;;;;;14.04;61.93;99541.78;5061511;28;20032;-95
2022/05/13 02:11:13;;;;;;;8.13;4.68;;;;;;;14.03;61.90;99548.28;5059475;28;20497;-95
2022/05/13 02:13:39;;;;;;;7.68;5.00;;;;;;;13.86;62.35;99546.84;5042590;28;20024;-94
2022/05/13 02:16:04;;;;;;;11.73;5.25;;;;;;;13.93;62.55;99562.75;5059511;28;20111;-95
2022/05/13 02:18:30;;;;;;;10.07;5.45;;;;;;;13.83;62.39;99542.00;5059666;28;20107;-94
2022/05/13 02:20:56;;;;;;;8.25;5.50;;;;;;;13.81;62.31;99535.25;5058956;28;20028;-94
2022/05/13 02:23:21;;;;;;;11.32;6.03;;;;;;;13.75;62.50;99537.19;5075434;28;20055;-92
2022/05/13 02:25:50;;;;;;;9.70;5.95;;;;;;;13.73;62.86;99544.81;5058715;28;20028;-92
2022/05/13 02:28:16;;;;;;;8.05;5.20;;;;;;;13.72;62.28;99535.88;5059130;28;20123;-93
2022/05/13 02:30:42;;;;;;;9.20;5.50;;;;;;;13.72;62.46;99546.72;5058523;28;20024;-92
2022/05/13 02:33:08;;;;;;;9.20;5.70;;;;;;;13.63;62.69;99534.06;5058583;28;20081;-92
2022/05/13 02:35:34;;;;;;;10.32;5.13;;;;;;;13.58;63.06;99539.53;5059162;28;20491;-92
2022/05/13 02:37:59;;;;;;;8.13;5.38;;;;;;;13.60;62.86;99543.56;5058647;28;20027;-92
2022/05/13 02:43:12;;;;;;;9.32;5.95;;;;;;;13.51;63.52;99566.94;5065140;28;20062;-92
2022/05/13 02:45:38;;;;;;;19.30;7.63;;;;;;;13.43;63.33;99559.41;5058693;28;20081;-91
2022/05/13 02:48:04;;;;;;;8.60;6.82;;;;;;;13.26;63.59;99538.13;5058449;28;20032;-92
2022/05/13 02:50:30;;;;;;;9.57;7.63;;;;;;;13.31;63.66;99555.16;5058373;28;20034;-92
2022/05/13 02:52:55;;;;;;;12.88;7.50;;;;;;;13.29;63.92;99561.94;5058542;28;20028;-92
2022/05/13 02:55:21;;;;;;;9.60;7.70;;;;;;;13.32;64.06;99561.38;5058972;28;20093;-91
2022/05/13 02:57:46;;;;;;;12.25;7.85;;;;;;;13.31;64.14;99576.78;5075226;28;20028;-92
2022/05/13 03:00:12;;;;;;;12.02;7.68;;;;;;;13.29;64.12;99564.66;5058186;28;20114;-92
2022/05/13 03:02:38;;;;;;;15.85;8.05;;;;;;;13.35;63.79;99560.81;5058807;28;20043;-92
2022/05/13 03:05:04;;;;;;;13.65;7.53;;;;;;;13.36;63.88;99575.94;5058264;28;20028;-92
2022/05/13 03:07:29;;;;;;;14.10;7.63;;;;;;;13.19;63.88;99559.28;5061830;28;20028;-91
2022/05/13 03:09:55;;;;;;;13.70;7.03;;;;;;;13.15;64.08;99567.13;5045478;28;20497;-92
2022/05/13 03:12:20;;;;;;;16.63;9.18;;;;;;;13.13;63.81;99564.72;5062532;28;20054;-92
2022/05/13 03:14:46;;;;;;;21.30;10.75;;;;;;;13.21;64.06;99582.25;5062490;28;20485;-92
2022/05/13 03:17:11;;;;;;;14.52;10.95;;;;;;;13.00;64.44;99573.44;5046548;28;20032;-91
2022/05/13 03:19:37;;;;;;;15.63;10.18;;;;;;;13.05;64.18;99575.31;5062372;28;20020;-92
2022/05/13 03:22:04;;;;;;;20.95;11.13;;;;;;;12.97;64.67;99570.50;5062165;28;20036;-92
2022/05/13 03:24:29;;;;;;;33.10;12.52;;;;;;;12.95;64.92;99578.91;5063098;28;20032;-91
2022/05/13 03:26:56;;;;;;;21.40;11.23;;;;;;;13.02;64.50;99582.09;5061799;28;20062;-91
2022/05/13 03:29:21;;;;;;;17.85;10.18;;;;;;;13.10;64.69;99595.03;5062251;28;20054;-90
2022/05/13 03:31:47;;;;;;;20.63;10.55;;;;;;;12.97;65.01;99584.84;5062535;28;20066;-91
2022/05/13 03:34:13;;;;;;;27.52;11.00;;;;;;;13.00;64.93;99578.06;5061994;28;20027;-91
2022/05/13 03:36:39;;;;;;;27.83;11.18;;;;;;;13.06;65.09;99593.97;5061316;28;20027;-92
2022/05/13 03:39:07;;;;;;;20.85;10.30;;;;;;;13.22;64.51;99608.19;5062353;28;20032;-91
2022/05/13 03:41:33;;;;;;;18.52;9.23;;;;;;;13.22;64.58;99599.25;5074993;28;20086;-92
2022/05/13 03:44:01;;;;;;;23.92;9.93;;;;;;;13.21;64.36;99590.34;5057663;28;20060;-91
2022/05/13 03:46:26;;;;;;;17.00;8.95;;;;;;;13.30;64.64;99609.53;5057980;28;20028;-91
2022/05/13 03:48:52;;;;;;;18.65;9.20;;;;;;;13.18;64.29;99579.28;5057941;28;20430;-91
2022/05/13 03:51:17;;;;;;;18.42;9.48;;;;;;;13.27;64.37;99591.13;5057948;28;20025;-92
2022/05/13 03:53:43;;;;;;;20.95;10.10;;;;;;;13.25;64.57;99596.00;5075051;28;20040;-91
2022/05/13 03:56:08;;;;;;;17.90;9.68;;;;;;;13.22;64.34;99586.56;5074901;28;20024;-92
2022/05/13 03:58:34;;;;;;;13.68;9.85;;;;;;;13.31;64.34;99600.34;5074465;28;20032;-91
2022/05/13 04:01:02;;;;;;;18.42;8.77;;;;;;;13.23;64.49;99585.47;5074411;28;20478;-91
2022/05/13 04:03:28;;;;;;;19.20;9.77;;;;;;;13.32;64.35;99591.94;5074512;28;20024;-92
2022/05/13 04:08:56;;;;;;;25.00;10.30;;;;;;;13.51;63.84;99604.81;5075003;28;20032;-95
2022/05/13 04:11:29;;;;;;;16.98;9.75;;;;;;;13.48;64.08;99606.16;5060385;28;20032;-92
2022/05/13 04:16:38;;;;;;;31.63;13.25;;;;;;;13.67;63.59;99619.00;5087997;28;20032;-92
2022/05/13 04:19:05;;;;;;;41.72;14.75;;;;;;;13.68;63.31;99607.09;5064137;28;20524;-94
2022/05/13 04:21:33;;;;;;;40.65;15.25;;;;;;;13.67;63.96;99613.59;5041930;28;20040;-92
2022/05/13 04:24:02;;;;;;;27.05;14.75;;;;;;;13.75;63.91;99611.06;5057638;28;20024;-93
2022/05/13 04:26:28;;;;;;;34.47;17.55;;;;;;;13.81;63.47;99619.16;5057814;28;20039;-92
2022/05/13 04:28:54;;;;;;;27.58;16.08;;;;;;;13.86;63.20;99614.53;5056828;28;20400;-92
2022/05/13 04:31:22;;;;;;;28.00;16.73;;;;;;;13.93;63.17;99620.41;5044351;28;20020;-93
2022/05/13 04:33:48;;;;;;;31.75;19.48;;;;;;;13.86;63.83;99619.09;5056394;28;20032;-93
2022/05/13 04:36:19;;;;;;;34.15;19.90;;;;;;;13.85;63.28;99599.38;5042477;28;20429;-96
2022/05/13 04:38:45;;;;;;;39.42;20.58;;;;;;;14.00;63.02;99611.16;5059832;28;20147;-94
2022/05/13 04:43:56;;;;;;;42.05;23.75;;;;;;;14.35;62.50;99620.81;5064662;28;20098;-94
2022/05/13 04:46:22;;;;;;;39.70;23.92;;;;;;;14.50;61.95;99636.09;5044364;28;20070;-94
2022/05/13 04:48:48;;;;;;;41.28;25.05;;;;;;;14.58;61.91;99621.13;5064023;28;20028;-94
2022/05/13 04:51:14;;;;;;;55.92;28.80;;;;;;;14.65;61.18;99633.25;5043433;28;20105;-94
2022/05/13 04:53:41;;;;;;;51.72;30.17;;;;;;;14.69;61.27;99622.63;5062549;28;20016;-93
2022/05/13 04:56:07;;;;;;;50.95;29.13;;;;;;;14.92;60.88;99618.25;5048522;28;20017;-96
2022/05/13 04:58:33;;;;;;;59.38;30.27;;;;;;;14.97;60.88;99620.13;5061786;28;20025;-94
2022/05/13 05:00:59;;;;;;;50.35;29.35;;;;;;;15.10;61.07;99635.66;5060782;28;20036;-95
2022/05/13 05:03:29;;;;;;;53.35;29.33;;;;;;;15.19;60.65;99636.66;5062800;28;20047;-94
2022/05/13 05:05:57;;;;;;;52.95;31.30;;;;;;;15.15;60.68;99619.34;5062722;28;20036;-93
2022/05/13 05:08:23;;;;;;;68.55;31.95;;;;;;;15.33;60.41;99629.34;5060571;28;20048;-94
2022/05/13 05:10:49;;;;;;;46.92;28.98;;;;;;;15.43;60.08;99633.03;5061260;28;20032;-92
2022/05/13 05:13:27;;;;;;;45.75;28.40;;;;;;;15.55;59.73;99634.19;5049582;28;20028;-92
2022/05/13 05:15:53;;;;;;;48.92;26.35;;;;;;;15.73;58.82;99639.94;5042232;28;20036;-91
2022/05/13 05:18:28;;;;;;;41.83;23.90;;;;;;;15.82;58.13;99630.00;5057760;28;20529;-92
2022/05/13 05:20:57;;;;;;;35.22;22.33;;;;;;;15.93;56.75;99620.56;5072643;28;20093;-96
2022/05/13 05:23:31;;;;;;;28.95;20.38;;;;;;;16.11;56.08;99615.41;5092431;28;20031;-96
2022/05/13 05:25:58;;;;;;;36.20;20.20;;;;;;;16.26;57.31;99628.69;5091333;28;20034;-94
2022/05/13 05:28:28;;;;;;;32.13;16.90;;;;;;;16.53;55.82;99646.94;5080509;28;20046;-96
2022/05/13 05:31:04;;;;;;;24.02;16.50;;;;;;;16.64;55.25;99631.22;5078723;28;20551;-96
2022/05/13 05:33:31;;;;;;;25.52;16.65;;;;;;;16.67;54.97;99625.19;5096099;28;20028;-96
2022/05/13 05:36:07;;;;;;;27.13;16.15;;;;;;;16.90;54.62;99641.63;5076720;28;20019;-96
2022/05/13 05:38:51;;;;;;;31.63;14.95;;;;;;;17.02;54.38;99644.66;5083884;28;20016;-96
2022/05/13 05:41:18;;;;;;;20.80;13.68;;;;;;;17.15;53.32;99627.47;5080850;28;20079;-96
2022/05/13 05:43:47;;;;;;;20.27;12.07;;;;;;;17.30;52.90;99637.22;5075855;28;20047;-96
2022/05/13 05:46:13;;;;;;;21.58;11.32;;;;;;;17.48;52.58;99646.34;5073097;28;20016;-93
2022/05/13 05:51:07;;;;;;;17.02;11.73;;;;;;;17.66;50.99;99621.97;5019287;28;20057;-93
2022/05/13 05:59:07;;;;;;;136.20;18.20;;;;;;;18.12;51.10;99621.66;5042347;28;20116;-94
2022/05/13 06:01:33;;;;;;;63.05;17.10;;;;;;;18.17;51.15;99623.44;4990401;28;20067;-94
2022/05/13 06:03:59;;;;;;;59.85;17.15;;;;;;;18.32;51.18;99631.22;5005185;28;20056;-95
2022/05/13 06:06:25;;;;;;;32.50;18.55;;;;;;;18.59;51.28;99634.84;4991120;28;20456;-94
2022/05/13 06:08:54;;;;;;;35.05;20.85;;;;;;;18.56;50.95;99625.38;5007228;28;20194;-96
2022/05/13 06:11:26;;;;;;;35.92;20.23;;;;;;;18.71;50.85;99618.69;5004747;28;20614;-92
2022/05/13 06:13:55;;;;;;;32.22;21.58;;;;;;;18.82;50.26;99619.22;4981838;28;20033;-96
2022/05/13 06:16:25;;;;;;;25.35;21.30;;;;;;;19.02;49.53;99622.47;5029832;23;20069;-96
2022/05/13 06:18:53;;;;;;;36.95;22.83;;;;;;;19.21;49.69;99614.78;4964344;28;20034;-93
2022/05/13 06:21:19;;;;;;;33.80;21.73;;;;;;;19.31;49.18;99614.47;4965511;28;20041;-90
2022/05/13 06:23:44;;;;;;;37.42;25.35;;;;;;;19.49;49.58;99625.41;4958869;28;20026;-93
2022/05/13 06:26:13;;;;;;;35.97;21.20;;;;;;;19.61;48.24;99611.09;4943310;28;20117;-93
2022/05/13 06:28:39;;;;;;;37.58;20.02;;;;;;;19.77;48.14;99614.94;4956621;28;20063;-93
2022/05/13 06:31:12;;;;;;;33.90;17.92;;;;;;;19.80;49.22;99619.78;4995051;28;20061;-94
2022/05/13 06:36:51;;;;;;;30.52;19.02;;;;;;;20.11;48.33;99607.81;4949424;28;20041;-92
2022/05/13 06:39:19;;;;;;;38.03;27.20;;;;;;;20.27;48.23;99599.88;4942172;28;20031;-94
2022/05/13 06:41:46;;;;;;;25.38;19.45;;;;;;;20.32;47.70;99586.81;4931638;29;20035;-90
2022/05/13 06:44:12;;;;;;;27.20;17.80;;;;;;;20.65;47.60;99619.06;4923152;29;20035;-88
2022/05/13 06:46:39;;;;;;;31.02;17.95;;;;;;;20.68;47.39;99595.69;4938208;29;20043;-90
2022/05/13 06:49:07;;;;;;;24.05;19.83;;;;;;;20.88;46.81;99594.13;4911535;29;20031;-94
2022/05/13 06:51:34;;;;;;;29.02;17.42;;;;;;;21.03;46.25;99596.28;4921786;29;20130;-93
2022/05/13 06:54:06;;;;;;;25.40;16.08;;;;;;;21.32;45.94;99597.34;4922763;29;20039;-94
2022/05/13 06:56:32;;;;;;;;;;;;;;;21.48;45.43;99608.50;4924213;28;20039;-89
2022/05/13 06:59:00;;;;;;;19.83;15.40;;;;;;;21.36;45.51;99571.69;4936444;29;19910;-89
2022/05/13 07:01:26;;;;;;;26.30;17.48;;;;;;;21.66;45.61;99590.78;4958008;28;20051;-89
2022/05/13 07:03:52;;;;;;;29.40;17.67;;;;;;;21.75;45.84;99593.44;4938173;29;20023;-90
2022/05/13 07:06:17;;;;;;;39.05;21.00;;;;;;;21.78;45.92;99584.53;4925068;28;20437;-93
2022/05/13 07:08:43;;;;;;;24.45;13.73;;;;;;;21.96;44.98;99582.41;4945346;28;20033;-91
2022/05/13 07:11:08;;;;;;;17.50;10.45;;;;;;;22.16;44.22;99583.47;4944099;28;20053;-90
2022/05/13 07:13:34;;;;;;;17.67;11.85;;;;;;;22.31;44.35;99599.31;4992825;28;20045;-90
2022/05/13 07:16:00;;;;;;;19.50;12.40;;;;;;;22.38;44.13;99576.78;4954250;28;20179;-90
2022/05/13 07:18:27;;;;;;;27.35;10.23;;;;;;;22.54;43.35;99593.38;4965473;28;20025;-91
2022/05/13 07:20:53;;;;;;;16.42;8.55;;;;;;;22.75;41.96;99596.78;4970493;28;20576;-93
2022/05/13 07:23:43;;;;;;;15.10;9.10;;;;;;;22.90;42.07;99599.97;4960223;28;20038;-95
2022/05/13 07:26:09;;;;;;;12.90;7.40;;;;;;;23.15;40.86;99598.00;4950751;29;20047;-93
2022/05/13 07:28:40;;;;;;;18.00;7.15;;;;;;;23.22;40.65;99581.72;4938299;29;20023;-91
2022/05/13 07:31:09;;;;;;;12.50;7.20;;;;;;;23.37;38.96;99571.94;4938816;29;20035;-91
2022/05/13 07:33:34;;;;;;;12.98;7.07;;;;;;;23.49;38.91;99573.84;4939317;29;20118;-93
2022/05/13 07:36:01;;;;;;;39.00;21.52;;;;;;;23.51;38.54;99568.78;4926053;29;20148;-92
2022/05/13 07:38:29;;;;;;;16.17;12.35;;;;;;;23.75;38.45;99587.13;4961581;28;20059;-94
2022/05/13 07:43:39;;;;;;;8.35;5.57;;;;;;;23.85;37.25;99567.38;4979298;28;20026;-93
2022/05/13 07:46:10;;;;;;;12.70;7.25;;;;;;;24.02;37.21;99566.25;4977834;28;20031;-95
2022/05/13 07:48:40;;;;;;;18.92;10.15;;;;;;;24.14;38.29;99555.16;4950806;28;20066;-96
2022/05/13 07:51:06;;;;;;;14.90;7.78;;;;;;;24.27;37.43;99553.09;4963430;28;20076;-93
2022/05/13 07:53:31;;;;;;;13.68;6.55;;;;;;;24.39;36.52;99561.25;4963573;28;20482;-93
2022/05/13 07:55:59;;;;;;;19.77;9.18;;;;;;;24.53;36.69;99560.84;4952754;28;20049;-90
2022/05/13 07:58:24;;;;;;;13.98;8.10;;;;;;;24.58;36.46;99546.78;4968082;28;20026;-91
2022/05/13 08:01:00;;;;;;;46.60;31.75;;;;;;;24.80;35.64;99550.84;4967236;28;20045;-91
2022/05/13 08:03:36;;;;;;;26.73;15.43;;;;;;;24.73;35.19;99547.91;4997669;28;20104;-89
2022/05/13 08:06:04;;;;;;;11.73;6.88;;;;;;;25.02;34.58;99567.81;4974656;28;20036;-89
2022/05/13 08:08:56;;;;;;;15.07;8.07;;;;;;;25.12;33.89;99566.44;5003550;28;20088;-88
2022/05/13 08:11:24;;;;;;;22.30;12.93;;;;;;;25.08;34.27;99538.81;4997553;28;20038;-89
2022/05/13 08:13:53;;;;;;;8.88;4.82;;;;;;;25.19;32.60;99542.59;4967080;28;20664;-88
2022/05/13 08:16:20;;;;;;;6.95;4.55;;;;;;;25.27;32.30;99535.28;4991491;28;20062;-89
2022/05/13 08:18:49;;;;;;;11.10;4.18;;;;;;;25.37;32.50;99537.47;4969233;28;20018;-90
2022/05/13 08:21:25;;;;;;;11.93;4.35;;;;;;;25.48;31.28;99537.66;5000855;28;20030;-88
2022/05/13 08:23:53;;;;;;;5.55;3.00;;;;;;;25.57;30.96;99531.94;4964822;28;20040;-89
2022/05/13 08:26:23;;;;;;;5.70;3.00;;;;;;;25.57;30.32;99523.66;4973271;28;20049;-93
2022/05/13 08:28:48;;;;;;;8.35;3.10;;;;;;;25.72;30.88;99546.78;4973936;28;20186;-89
2022/05/13 08:31:14;;;;;;;7.95;3.30;;;;;;;25.80;30.82;99540.22;4975553;28;20108;-90
2022/05/13 08:33:46;;;;;;;6.95;3.10;;;;;;;25.86;29.79;99529.66;5000923;28;20034;-90
2022/05/13 08:36:12;;;;;;;12.40;6.30;;;;;;;25.95;30.49;99531.06;4983696;28;20398;-91
2022/05/13 08:38:49;;;;;;;5.68;3.10;;;;;;;25.95;28.67;99517.25;5000606;28;20058;-94
2022/05/13 08:41:37;;;;;;;10.70;3.28;;;;;;;26.19;28.44;99545.66;4992622;28;20104;-92
2022/05/13 08:44:09;;;;;;;19.55;3.90;;;;;;;26.13;29.78;99538.84;5022517;28;20022;-94
2022/05/13 08:47:08;;;;;;;14.75;3.88;;;;;;;26.10;28.98;99534.84;4986469;28;20089;-90
2022/05/13 08:49:47;;;;;;;15.60;4.28;;;;;;;26.19;29.15;99538.16;4989984;28;20038;-92
2022/05/13 08:56:11;;;;;;;6.63;3.83;;;;;;;26.38;28.06;99522.69;5007337;28;20060;-89
2022/05/13 08:58:41;;;;;;;8.48;3.08;;;;;;;26.48;28.40;99521.22;4946671;29;20037;-90
2022/05/13 09:01:11;;;;;;;6.85;3.10;;;;;;;26.41;27.39;99500.63;4947558;28;20064;-91
2022/05/13 09:03:48;;;;;;;14.10;3.28;;;;;;;26.50;29.41;99510.59;4966370;28;20033;-90
2022/05/13 09:06:29;;;;;;;5.45;2.70;;;;;;;26.59;27.90;99513.94;4964747;28;20361;-90
2022/05/13 09:08:54;;;;;;;7.22;2.80;;;;;;;26.52;26.23;99505.50;4977848;28;20037;-90
2022/05/13 09:11:30;;;;;;;12.00;3.50;;;;;;;26.65;26.89;99520.72;4993166;28;20079;-88
2022/05/13 09:14:04;;;;;;;7.47;3.60;;;;;;;26.81;26.82;99526.88;4981426;28;20021;-88
2022/05/13 09:17:03;;;;;;;7.70;3.47;;;;;;;26.83;25.52;99509.91;4995640;28;20048;-88
2022/05/13 09:19:40;;;;;;;3.40;3.10;;;;;;;26.99;24.19;99518.00;4991532;28;20042;-89
2022/05/13 09:22:11;;;;;;;6.97;2.95;;;;;;;26.84;25.49;99494.13;4988641;28;20022;-89
2022/05/13 09:24:37;;;;;;;;;;;;;;;27.04;26.10;99514.09;4962694;28;20025;-89
2022/05/13 09:27:06;;;;;;;8.73;3.65;;;;;;;27.10;26.28;99507.06;4994845;28;19913;-89
2022/05/13 09:29:40;;;;;;;3.65;3.00;;;;;;;27.13;26.35;99487.78;4978034;28;20033;-89
2022/05/13 09:32:07;;;;;;;6.68;3.15;;;;;;;27.12;25.07;99482.63;4978478;28;20034;-90
2022/05/13 09:34:49;;;;;;;10.05;3.17;;;;;;;27.21;24.35;99492.22;4977476;28;20029;-90
2022/05/13 09:37:23;;;;;;;7.05;2.60;;;;;;;27.20;23.21;99468.50;4975219;28;20033;-90
2022/05/13 09:40:36;;;;;;;4.35;2.70;;;;;;;27.37;21.17;99486.50;4964183;28;20491;-90
2022/05/13 09:43:05;;;;;;;5.25;2.28;;;;;;;27.31;21.54;99470.59;4992539;28;20042;-90
2022/05/13 09:45:33;;;;;;;6.88;2.63;;;;;;;27.22;22.13;99470.88;4978040;28;20449;-90
2022/05/13 09:48:01;;;;;;;5.47;3.72;;;;;;;27.30;22.91;99466.25;4967891;28;20026;-88
2022/05/13 09:50:29;;;;;;;4.80;2.45;;;;;;;27.31;23.20;99467.84;4981031;28;20034;-89
2022/05/13 09:53:03;;;;;;;3.88;2.72;;;;;;;27.35;23.29;99460.38;4988594;28;20025;-88
2022/05/13 09:55:55;;;;;;;9.70;2.55;;;;;;;27.45;23.36;99462.47;4990453;28;20032;-87
2022/05/13 09:58:26;;;;;;;4.15;2.40;;;;;;;27.50;23.01;99466.88;4940018;28;20160;-90
2022/05/13 10:00:56;;;;;;;14.45;3.10;;;;;;;27.36;24.35;99450.91;4937961;28;20174;-93
2022/05/13 10:03:29;;;;;;;18.05;8.35;;;;;;;27.55;24.07;99459.00;4957831;28;20520;-93
2022/05/13 10:06:15;;;;;;;7.28;2.67;;;;;;;27.69;24.06;99460.31;4959163;28;20130;-93
2022/05/13 10:08:52;;;;;;;6.38;2.78;;;;;;;27.74;23.81;99451.66;4946558;28;20050;-94
2022/05/13 10:14:33;;;;;;;4.15;2.60;;;;;;;27.95;23.13;99449.09;4954670;28;20081;-90
2022/05/13 10:17:03;;;;;;;10.88;3.40;;;;;;;28.00;23.28;99437.66;4984743;28;20133;-88
2022/05/13 10:20:13;;;;;;;9.35;2.65;;;;;;;28.17;23.88;99444.50;4955043;28;20057;-90
2022/05/13 10:22:56;;;;;;;6.53;3.17;;;;;;;28.15;23.21;99437.75;4985598;28;20037;-94
2022/05/13 10:25:35;;;;;;;6.15;3.05;;;;;;;28.04;22.66;99415.53;4972767;28;20035;-94
2022/05/13 10:35:19;;;;;;;6.22;2.70;;;;;;;28.20;24.93;99418.81;4962459;28;20037;-89
2022/05/13 10:38:20;;;;;;;7.80;2.33;;;;;;;28.20;23.20;99409.69;4952082;28;20047;-88
2022/05/13 10:40:47;;;;;;;3.65;2.42;;;;;;;28.17;24.21;99393.88;4962599;28;20484;-91
2022/05/13 10:43:39;;;;;;;8.68;4.38;;;;;;;28.30;23.77;99416.47;4946153;28;20053;-91
2022/05/13 10:46:13;;;;;;;;;;;;;;;28.31;22.82;99410.56;4963068;28;20125;-92
2022/05/13 10:48:38;;;;;;;6.63;3.55;;;;;;;28.26;23.00;99393.50;4977523;28;20466;-91
2022/05/13 10:51:25;;;;;;;6.93;3.22;;;;;;;28.42;23.29;99410.59;4947148;28;20034;-90
2022/05/13 10:54:24;;;;;;;8.48;2.90;;;;;;;28.32;22.70;99398.28;4977646;28;20141;-88
2022/05/13 10:57:06;;;;;;;5.85;2.63;;;;;;;28.31;21.53;99384.84;4983988;28;20069;-89
2022/05/13 10:59:49;;;;;;;4.78;2.03;;;;;;;28.27;21.69;99372.97;4979583;28;20026;-91
2022/05/13 11:02:43;;;;;;;6.07;2.65;;;;;;;28.43;21.38;99390.06;4996561;28;20034;-92
2022/05/13 11:05:36;;;;;;;2.42;2.10;;;;;;;28.35;22.73;99369.81;4976553;28;20034;-90
2022/05/13 11:08:32;;;;;;;4.43;2.35;;;;;;;28.37;22.20;99359.16;4967778;28;20060;-94
2022/05/13 11:10:58;;;;;;;5.07;2.25;;;;;;;28.52;22.10;99382.19;4978570;28;20037;-94
2022/05/13 11:13:52;;;;;;;6.13;2.97;;;;;;;28.62;21.04;99383.44;4975770;28;20030;-93
2022/05/13 11:16:43;;;;;;;6.50;2.70;;;;;;;28.65;20.96;99379.06;4961643;28;20516;-95
2022/05/13 11:19:29;;;;;;;6.85;2.55;;;;;;;28.58;20.68;99369.56;4978708;28;20031;-95
2022/05/13 11:22:19;;;;;;;5.05;2.25;;;;;;;28.66;21.69;99372.34;4973378;28;20038;-94
2022/05/13 11:28:12;;;;;;;8.10;5.78;;;;;;;28.67;22.44;99365.63;4977225;28;20062;-90
2022/05/13 11:31:00;;;;;;;3.20;2.65;;;;;;;28.83;22.19;99362.50;4966761;28;20448;-89
2022/05/13 11:33:32;;;;;;;5.10;2.40;;;;;;;28.81;21.68;99355.38;4979475;28;20423;-91
2022/05/13 11:35:57;;;;;;;5.07;2.78;;;;;;;28.81;22.74;99358.13;4984315;28;20029;-90
2022/05/13 11:38:45;;;;;;;5.47;2.65;;;;;;;28.72;22.46;99340.28;5016656;28;20041;-92
2022/05/13 11:41:13;;;;;;;6.63;2.20;;;;;;;28.70;21.73;99337.94;4959723;28;20445;-91
2022/05/13 11:44:22;;;;;;;4.20;2.08;;;;;;;28.72;20.61;99335.56;4946732;28;20026;-91
2022/05/13 11:46:57;;;;;;;4.00;2.30;;;;;;;28.69;20.89;99341.88;4949686;28;20038;-93
2022/05/13 11:49:43;;;;;;;7.00;2.70;;;;;;;28.67;21.03;99332.38;4944986;28;20022;-92
2022/05/13 11:52:11;;;;;;;5.40;2.90;;;;;;;28.68;22.01;99333.94;4967298;28;20027;-96
2022/05/13 11:54:41;;;;;;;7.90;2.90;;;;;;;28.58;21.98;99316.13;5004518;28;20026;-96
2022/05/13 11:57:28;;;;;;;7.03;2.90;;;;;;;28.65;21.60;99318.13;4957538;28;20031;-91
2022/05/13 12:00:15;;;;;;;3.20;1.92;;;;;;;28.70;20.86;99326.84;4961969;28;20026;-90
2022/05/13 12:03:18;;;;;;;4.90;3.17;;;;;;;28.76;21.23;99311.44;4995444;28;20030;-92
2022/05/13 12:06:44;;;;;;;;;;;;;;;;;;;;;
2022/05/13 12:09:56;;;;;;;5.78;2.40;;;;;;;28.94;21.47;99311.44;4990304;28;20137;-91
2022/05/13 12:12:29;;;;;;;4.32;2.45;;;;;;;28.97;21.20;99307.06;4979636;28;20030;-93
2022/05/13 12:21:22;;;;;;;7.45;3.13;;;;;;;29.10;20.75;99288.09;5347938;23;20050;-88
2022/05/13 12:23:53;;;;;;;3.00;2.20;;;;;;;29.16;20.41;99287.31;4989165;28;20055;-87
2022/05/13 12:26:20;;;;;;;;;;;;;;;29.18;20.71;99282.16;4987653;28;20099;-87
2022/05/13 12:28:59;;;;;;;7.47;2.50;;;;;;;29.25;20.77;99275.81;4995864;28;19913;-88
2022/05/13 12:31:45;;;;;;;7.95;3.35;;;;;;;29.31;20.65;99256.81;4994009;28;20026;-89
2022/05/13 12:37:35;;;;;;;8.15;3.20;;;;;;;29.61;19.92;99259.13;4991380;28;20415;-89
2022/05/13 12:40:01;;;;;;;7.72;2.90;;;;;;;29.73;20.32;99266.25;4989665;28;20101;-87
2022/05/13 12:42:39;;;;;;;6.35;2.60;;;;;;;29.72;19.07;99240.50;4993873;28;20038;-87